Clarksville, Missouri
Current Conditions -  °F | °C
As of 9:15 PM on Tuesday 25 Nov 2014 (Local Time) from KPPQ Reporting Station
Clear Clear  
Wind Chill: -2°   Ceiling: Unl
Heat Index: -2°   Visibility: 10mi
Dew Point: -4°   Wind: 3mph
Humidity: 90%   Direction: 150°SSE
Pressure: 30.16"   Gusts: NA
Location:  39.37°N, 90.91°W
Report Text: KPPQ 260315Z AUTO 15003KT 10SM CLR M02/M03 A3016 RMK AO2 T10211035 PWINO
Loading
Personal Weather Stations






























Interactive Weather Map New forecast layout! Learn more

10-Day Weather Forecast

Advertisements
Track Severe Weather on mobile